Bokchito, Oklahoma
Current Conditions -  °F | °C
As of 5:55 AM on Thursday 23 Oct 2014 (Local Time) from KDUA Reporting Station
Drizzle Drizzle  
Wind Chill: 59°   Ceiling: 11000
Heat Index: 59°   Visibility: 10mi
Dew Point: 55°   Wind: 3mph
Humidity: 88%   Direction: 120°ESE
Pressure: 30.15"   Gusts: NA
Location:  34.02°N, 96.14°W
Report Text: KDUA 231055Z AUTO 12003KT 10SM -DZ SCT065 OVC110 15/13 A3015 RMK AO2
Loading
Personal Weather Stations






























Interactive Weather Map New forecast layout! Learn more

10-Day Weather Forecast

Advertisements
Track Severe Weather on mobile